Terminal Aerodrome Forecast
Issued by NWS

Home | Current Version | Previous Version | Text Only | Print | Product List | Glossary On
Versions: 1 2 3 4 5 6 7 8 9 10 11 12 13 14 15
658
FTUS44 KCRP 171740
TAFALI
TAF
KALI 171740Z 1718/1818 VRB03KT P6SM OVC005
     FM172100 VRB03KT P6SM BKN009 OVC012
     FM180400 36004KT 6SM BR OVC008
     FM180800 04005KT 3SM BR VCSH OVC004
     FM181500 36006KT P6SM VCSH OVC006 PROB30 1815/1818 5SM -SHRA
      OVC004=

USA.gov is the U.S. government's official web portal to all federal, state and local government web resources and services.